Time;durP1;ratioP1;P1;durP2;ratioP2;P2;SDS_P1;SDS_P2;PMS_P1;PMS_P2;Temp;Humidity;BMP_temperature;BMP_pressure;BME280_temperature;BME280_humidity;BME280_pressure;Samples;Min_cycle;Max_cycle;Signal;HPM_P1;HPM_P2
2022/07/23 00:01:34;;;;;;;30.67;27.37;;;19.80;99.90;;;;;;4133449;28;20317;-75
2022/07/23 00:03:35;;;;;;;70.97;32.67;;;19.90;99.90;;;;;;4136769;28;20271;-79
2022/07/23 00:05:35;;;;;;;46.00;21.50;;;19.90;99.90;;;;;;4133991;28;20234;-78
2022/07/23 00:07:36;;;;;;;115.67;37.40;;;19.90;99.90;;;;;;4131163;28;20191;-78
2022/07/23 00:09:37;;;;;;;98.57;26.57;;;19.90;99.90;;;;;;4131247;28;20618;-77
2022/07/23 00:11:37;;;;;;;78.93;39.93;;;19.80;99.90;;;;;;4130684;28;20186;-79
2022/07/23 00:13:38;;;;;;;20.30;18.57;;;19.70;99.90;;;;;;4132731;28;20273;-77
2022/07/23 00:15:39;;;;;;;14.17;12.27;;;19.80;99.90;;;;;;4130095;28;20214;-78
2022/07/23 00:17:39;;;;;;;106.10;29.63;;;19.90;99.90;;;;;;4132118;28;20237;-77
2022/07/23 00:19:40;;;;;;;75.73;22.90;;;19.90;99.90;;;;;;4132045;28;20197;-79
2022/07/23 00:21:40;;;;;;;17.23;15.77;;;19.80;99.90;;;;;;4130349;28;20301;-77
2022/07/23 00:23:41;;;;;;;17.47;15.67;;;19.70;99.90;;;;;;4131968;28;20182;-77
2022/07/23 00:25:41;;;;;;;16.77;14.80;;;19.60;99.90;;;;;;4133099;28;20226;-78
2022/07/23 00:27:42;;;;;;;193.30;48.53;;;19.60;99.90;;;;;;4133725;28;20186;-77
2022/07/23 00:29:43;;;;;;;14.97;13.57;;;19.50;99.90;;;;;;4133208;28;20206;-77
2022/07/23 00:31:44;;;;;;;12.37;10.93;;;19.40;99.90;;;;;;4131628;28;20189;-77
2022/07/23 00:33:44;;;;;;;11.93;10.57;;;19.40;99.90;;;;;;4130339;28;20198;-77
2022/07/23 00:35:45;;;;;;;12.77;11.47;;;19.40;99.90;;;;;;4131837;28;20269;-77
2022/07/23 00:37:46;;;;;;;14.93;13.50;;;19.40;99.90;;;;;;4132073;28;20182;-75
2022/07/23 00:39:46;;;;;;;83.27;25.90;;;19.40;99.90;;;;;;4131534;28;20226;-75
2022/07/23 00:41:47;;;;;;;51.90;24.53;;;19.30;99.90;;;;;;4131661;28;20206;-75
2022/07/23 00:43:47;;;;;;;27.23;23.80;;;19.20;99.90;;;;;;4129936;28;20572;-75
2022/07/23 00:45:48;;;;;;;12.40;11.17;;;19.20;99.90;;;;;;4131576;28;20213;-75
2022/07/23 00:47:49;;;;;;;14.73;13.30;;;19.20;99.90;;;;;;4131876;28;20186;-74
2022/07/23 00:49:49;;;;;;;61.50;25.53;;;19.10;99.90;;;;;;4131712;28;20265;-74
2022/07/23 00:51:50;;;;;;;14.70;13.23;;;19.10;99.90;;;;;;4131663;28;20573;-74
2022/07/23 00:53:51;;;;;;;27.80;20.33;;;19.10;99.90;;;;;;4131114;28;20214;-75
2022/07/23 00:55:52;;;;;;;12.60;11.50;;;19.00;99.90;;;;;;4131791;28;20260;-75
2022/07/23 00:57:55;;;;;;;11.53;9.77;;;19.00;99.90;;;;;;4131569;28;20265;-75
2022/07/23 00:59:57;;;;;;;12.07;10.87;;;19.00;99.90;;;;;;4131692;28;20183;-75
2022/07/23 01:01:58;;;;;;;12.83;11.53;;;19.00;99.90;;;;;;4131499;28;20583;-75
2022/07/23 01:03:58;;;;;;;52.37;27.83;;;19.00;99.90;;;;;;4130693;28;20181;-74
2022/07/23 01:05:59;;;;;;;109.10;31.37;;;19.00;99.90;;;;;;4131476;28;20189;-75
2022/07/23 01:08:00;;;;;;;9.50;7.70;;;19.20;99.90;;;;;;4130240;28;20196;-75
2022/07/23 01:10:01;;;;;;;22.73;15.97;;;19.20;99.90;;;;;;4131455;28;20194;-75
2022/07/23 01:12:02;;;;;;;14.13;12.83;;;19.10;99.90;;;;;;4131261;28;20205;-75
2022/07/23 01:14:13;;;;;;;17.07;15.30;;;19.20;99.90;;;;;;4130726;28;20206;-75
2022/07/23 01:16:14;;;;;;;16.73;15.17;;;19.20;99.90;;;;;;4131240;28;20209;-75
2022/07/23 01:18:14;;;;;;;13.40;12.27;;;19.20;99.90;;;;;;4130179;28;20186;-75
2022/07/23 01:20:15;;;;;;;22.67;20.37;;;19.20;99.90;;;;;;4129637;28;20277;-75
2022/07/23 01:22:19;;;;;;;51.80;41.20;;;19.00;99.90;;;;;;4129968;28;20217;-75
2022/07/23 01:24:19;;;;;;;42.20;33.23;;;19.00;99.90;;;;;;4130594;28;20685;-75
2022/07/23 01:26:20;;;;;;;231.00;35.73;;;19.00;99.90;;;;;;4129769;28;20197;-75
2022/07/23 01:28:21;;;;;;;34.07;16.97;;;18.90;99.90;;;;;;4131262;28;20209;-74
2022/07/23 01:30:22;;;;;;;19.67;17.90;;;18.90;99.90;;;;;;4129775;28;20690;-74
2022/07/23 01:32:22;;;;;;;14.17;12.70;;;18.90;99.90;;;;;;4129802;28;20182;-74
2022/07/23 01:34:23;;;;;;;33.93;22.00;;;18.90;99.90;;;;;;4130545;28;20659;-74
2022/07/23 01:36:24;;;;;;;51.90;14.00;;;19.00;99.90;;;;;;4131391;28;20190;-74
2022/07/23 01:38:24;;;;;;;11.07;10.03;;;19.00;99.90;;;;;;4129662;28;20186;-75
2022/07/23 01:40:25;;;;;;;104.37;53.80;;;19.00;99.90;;;;;;4130835;28;20206;-74
2022/07/23 01:42:25;;;;;;;13.10;11.80;;;18.90;99.90;;;;;;4130912;28;20209;-74
2022/07/23 01:44:26;;;;;;;35.93;16.67;;;18.90;99.90;;;;;;4130217;28;20677;-74
2022/07/23 01:46:26;;;;;;;19.17;17.70;;;18.90;99.90;;;;;;4131166;28;20179;-75
2022/07/23 01:48:27;;;;;;;12.17;9.30;;;18.90;99.90;;;;;;4129459;28;20249;-74
2022/07/23 01:50:27;;;;;;;23.43;21.20;;;18.70;99.90;;;;;;4130919;28;20224;-74
2022/07/23 01:52:28;;;;;;;13.63;12.33;;;18.70;99.90;;;;;;4131201;28;20557;-74
2022/07/23 01:54:31;;;;;;;10.43;9.50;;;18.70;99.90;;;;;;4130148;28;20614;-74
2022/07/23 01:56:32;;;;;;;16.63;14.87;;;18.70;99.90;;;;;;4130782;28;20186;-74
2022/07/23 01:58:33;;;;;;;20.90;19.30;;;18.80;99.90;;;;;;4130946;28;20317;-74
2022/07/23 02:00:34;;;;;;;16.43;14.90;;;18.70;99.90;;;;;;4130644;28;20189;-74
2022/07/23 02:02:35;;;;;;;26.33;24.07;;;18.60;99.90;;;;;;4130327;28;20185;-74
2022/07/23 02:04:36;;;;;;;8.13;7.33;;;18.60;99.90;;;;;;4129927;28;20273;-75
2022/07/23 02:06:36;;;;;;;10.90;10.00;;;18.60;99.90;;;;;;4130767;28;20250;-73
2022/07/23 02:08:37;;;;;;;10.70;9.70;;;18.50;99.90;;;;;;4130807;28;20171;-74
2022/07/23 02:10:38;;;;;;;8.37;7.00;;;18.60;99.90;;;;;;4130674;28;20182;-74
2022/07/23 02:12:38;;;;;;;22.03;14.47;;;18.50;99.90;;;;;;4130885;28;20178;-77
2022/07/23 02:14:39;;;;;;;9.87;7.53;;;18.60;99.90;;;;;;4130015;28;20205;-74
2022/07/23 02:16:39;;;;;;;188.43;37.67;;;18.50;99.90;;;;;;4130679;28;20228;-74
2022/07/23 02:18:40;;;;;;;18.07;16.57;;;18.50;99.90;;;;;;4130490;28;20536;-75
2022/07/23 02:20:41;;;;;;;14.63;12.27;;;18.20;99.90;;;;;;4129164;28;20176;-77
2022/07/23 02:22:41;;;;;;;11.80;10.70;;;18.10;99.90;;;;;;4130539;28;20179;-75
2022/07/23 02:24:42;;;;;;;12.77;11.57;;;18.00;99.90;;;;;;4123724;28;20243;-74
2022/07/23 02:26:43;;;;;;;82.27;21.40;;;17.90;99.90;;;;;;4129984;28;20178;-74
2022/07/23 02:28:43;;;;;;;15.40;13.87;;;17.90;99.90;;;;;;4130463;28;20178;-74
2022/07/23 02:30:44;;;;;;;30.07;15.40;;;18.00;99.90;;;;;;4130391;28;20178;-74
2022/07/23 02:32:44;;;;;;;12.60;11.17;;;18.00;99.90;;;;;;4132318;28;20863;-74
2022/07/23 02:34:45;;;;;;;11.40;9.43;;;17.80;99.90;;;;;;4132933;28;20202;-74
2022/07/23 02:36:45;;;;;;;13.27;11.80;;;17.80;99.90;;;;;;4133589;28;20186;-74
2022/07/23 02:38:46;;;;;;;12.30;10.93;;;17.70;99.90;;;;;;4132553;28;20649;-74
2022/07/23 02:40:47;;;;;;;17.33;15.37;;;17.70;99.90;;;;;;4132286;28;20225;-74
2022/07/23 02:42:48;;;;;;;11.63;9.73;;;17.70;99.90;;;;;;4133517;28;20845;-74
2022/07/23 02:44:48;;;;;;;14.40;13.03;;;17.70;99.90;;;;;;4133037;28;20277;-75
2022/07/23 02:46:49;;;;;;;15.40;13.90;;;17.60;99.90;;;;;;4133109;28;20181;-73
2022/07/23 02:48:49;;;;;;;14.20;12.10;;;17.70;99.90;;;;;;4133291;28;20190;-74
2022/07/23 02:50:51;;;;;;;9.97;8.87;;;17.70;99.90;;;;;;4133415;28;20178;-73
2022/07/23 02:52:52;;;;;;;19.97;11.83;;;17.60;99.90;;;;;;4132194;28;20182;-73
2022/07/23 02:54:52;;;;;;;11.40;9.43;;;17.70;99.90;;;;;;4132691;28;20673;-74
2022/07/23 02:56:53;;;;;;;14.53;12.87;;;17.60;99.90;;;;;;4133425;28;20549;-73
2022/07/23 02:58:53;;;;;;;12.40;10.13;;;17.50;99.90;;;;;;4131897;28;20583;-73
2022/07/23 03:00:54;;;;;;;11.40;9.70;;;17.50;99.90;;;;;;4133206;28;20202;-73
2022/07/23 03:02:55;;;;;;;10.97;9.80;;;17.50;99.90;;;;;;4133295;28;20171;-73
2022/07/23 03:04:55;;;;;;;11.77;10.17;;;17.50;99.90;;;;;;4132623;28;20231;-73
2022/07/23 03:06:56;;;;;;;11.50;10.23;;;17.40;99.90;;;;;;4133450;28;20190;-73
2022/07/23 03:08:56;;;;;;;11.70;10.30;;;17.40;99.90;;;;;;4131906;28;20185;-73
2022/07/23 03:10:57;;;;;;;27.83;17.03;;;17.30;99.90;;;;;;4133060;28;20198;-73
2022/07/23 03:12:57;;;;;;;10.67;9.57;;;17.20;99.90;;;;;;4133255;28;20218;-73
2022/07/23 03:14:58;;;;;;;12.20;11.00;;;17.10;99.90;;;;;;4131030;28;20206;-73
2022/07/23 03:16:59;;;;;;;15.20;13.80;;;17.10;99.90;;;;;;4133163;28;20657;-74
2022/07/23 03:19:00;;;;;;;51.73;24.20;;;17.20;99.90;;;;;;4131685;28;20186;-73
2022/07/23 03:21:00;;;;;;;15.60;14.00;;;17.30;99.90;;;;;;4132999;28;20208;-73
2022/07/23 03:23:01;;;;;;;13.93;11.07;;;17.40;99.90;;;;;;4131766;28;20182;-74
2022/07/23 03:25:01;;;;;;;13.03;11.67;;;17.40;99.90;;;;;;4132096;28;20309;-73
2022/07/23 03:27:02;;;;;;;13.30;11.97;;;17.50;99.90;;;;;;4133127;28;20652;-73
2022/07/23 03:29:03;;;;;;;15.23;13.50;;;17.50;99.90;;;;;;4132949;28;20180;-72
2022/07/23 03:31:04;;;;;;;14.03;11.63;;;17.50;99.90;;;;;;4132950;28;20193;-72
2022/07/23 03:33:04;;;;;;;14.47;12.13;;;17.50;99.90;;;;;;4131777;28;20273;-72
2022/07/23 03:35:05;;;;;;;10.53;9.43;;;17.40;99.90;;;;;;4131097;28;20206;-72
2022/07/23 03:37:06;;;;;;;12.63;9.60;;;17.40;99.90;;;;;;4131509;28;20182;-72
2022/07/23 03:39:07;;;;;;;101.43;31.53;;;17.40;99.90;;;;;;4131510;28;20253;-72
2022/07/23 03:41:07;;;;;;;13.13;11.73;;;17.40;99.90;;;;;;4133054;28;20202;-74
2022/07/23 03:43:08;;;;;;;13.60;11.83;;;17.40;99.90;;;;;;4131209;28;20185;-73
2022/07/23 03:45:09;;;;;;;15.80;11.97;;;17.30;99.90;;;;;;4132177;28;20206;-74
2022/07/23 03:47:09;;;;;;;11.17;9.43;;;17.30;99.90;;;;;;4132953;28;20175;-72
2022/07/23 03:49:10;;;;;;;11.03;9.93;;;17.40;99.90;;;;;;4131366;28;20178;-73
2022/07/23 03:51:10;;;;;;;15.97;14.27;;;17.30;99.90;;;;;;4132711;28;20269;-72
2022/07/23 03:53:11;;;;;;;16.00;14.20;;;17.40;99.90;;;;;;4133324;28;20187;-72
2022/07/23 03:55:11;;;;;;;13.47;11.20;;;17.50;99.90;;;;;;4132396;28;20206;-72
2022/07/23 03:57:12;;;;;;;13.57;11.50;;;17.40;99.90;;;;;;4132787;28;20946;-72
2022/07/23 03:59:13;;;;;;;28.57;14.70;;;17.40;99.90;;;;;;4131315;28;20190;-73
2022/07/23 04:01:13;;;;;;;19.23;17.60;;;17.20;99.90;;;;;;4132601;28;20264;-74
2022/07/23 04:03:14;;;;;;;22.47;19.80;;;17.20;99.90;;;;;;4132685;28;20206;-73
2022/07/23 04:05:14;;;;;;;13.20;10.03;;;17.20;99.90;;;;;;4131988;28;20206;-72
2022/07/23 04:07:17;;;;;;;13.37;12.07;;;17.20;99.90;;;;;;4132213;28;20205;-73
2022/07/23 04:09:17;;;;;;;19.80;16.73;;;17.10;99.90;;;;;;4132310;28;20166;-73
2022/07/23 04:11:18;;;;;;;10.43;9.40;;;17.10;99.90;;;;;;4132353;28;20534;-73
2022/07/23 04:13:19;;;;;;;20.43;18.47;;;17.10;99.90;;;;;;4132519;28;20239;-72
2022/07/23 04:15:19;;;;;;;13.07;11.87;;;17.30;99.90;;;;;;4131409;28;20341;-73
2022/07/23 04:17:20;;;;;;;19.17;17.23;;;17.50;99.90;;;;;;4132392;28;20190;-73
2022/07/23 04:19:20;;;;;;;33.13;19.03;;;17.50;99.90;;;;;;4132078;28;20214;-73
2022/07/23 04:21:21;;;;;;;12.60;11.50;;;17.50;99.90;;;;;;4132245;28;20240;-73
2022/07/23 04:23:21;;;;;;;47.70;16.83;;;17.50;99.90;;;;;;4132080;28;20182;-73
2022/07/23 04:25:22;;;;;;;12.60;9.80;;;17.50;99.90;;;;;;4130966;28;20276;-73
2022/07/23 04:27:22;;;;;;;9.50;7.53;;;17.50;99.90;;;;;;4130986;28;20671;-73
2022/07/23 04:29:23;;;;;;;7.70;7.00;;;17.50;99.90;;;;;;4132176;28;20187;-73
2022/07/23 04:31:24;;;;;;;13.13;11.97;;;17.50;99.90;;;;;;4130727;28;20221;-72
2022/07/23 04:33:24;;;;;;;20.07;18.50;;;17.40;99.90;;;;;;4131204;28;20186;-72
2022/07/23 04:35:25;;;;;;;6.67;6.00;;;17.30;99.90;;;;;;4115745;28;20215;-72
2022/07/23 04:37:25;;;;;;;14.67;13.40;;;17.40;99.90;;;;;;4132147;28;20611;-71
2022/07/23 04:39:26;;;;;;;9.10;6.33;;;17.40;99.90;;;;;;4139677;28;20185;-74
2022/07/23 04:41:26;;;;;;;8.00;7.20;;;17.50;99.90;;;;;;4147608;28;20285;-73
2022/07/23 04:43:27;;;;;;;6.47;5.80;;;17.60;99.90;;;;;;4147776;28;20178;-72
2022/07/23 04:45:28;;;;;;;20.23;13.50;;;17.50;99.90;;;;;;4147548;28;20669;-73
2022/07/23 04:47:28;;;;;;;9.07;6.60;;;17.60;99.60;;;;;;4148035;28;20212;-73
2022/07/23 04:49:29;;;;;;;7.87;7.13;;;17.60;99.10;;;;;;4147453;28;20194;-73
2022/07/23 04:51:29;;;;;;;10.17;6.80;;;17.60;97.70;;;;;;4130449;28;20190;-73
2022/07/23 04:53:30;;;;;;;7.43;6.57;;;17.70;99.20;;;;;;4130887;28;20209;-73
2022/07/23 04:55:30;;;;;;;10.83;9.90;;;17.70;99.90;;;;;;4130642;28;20213;-73
2022/07/23 04:57:31;;;;;;;6.30;5.43;;;17.70;99.90;;;;;;4130075;28;20196;-73
2022/07/23 04:59:31;;;;;;;7.77;6.30;;;17.70;99.90;;;;;;4131336;28;20592;-71
2022/07/23 05:01:32;;;;;;;8.20;7.40;;;17.80;99.90;;;;;;4131411;28;20220;-72
2022/07/23 05:03:32;;;;;;;14.67;13.33;;;17.90;99.90;;;;;;4131119;28;20629;-72
2022/07/23 05:05:33;;;;;;;9.00;8.23;;;17.80;99.90;;;;;;4130523;28;20204;-72
2022/07/23 05:07:34;;;;;;;11.67;10.57;;;17.70;99.90;;;;;;4131326;28;20233;-72
2022/07/23 05:09:34;;;;;;;8.70;7.90;;;17.60;99.90;;;;;;4129727;28;20201;-73
2022/07/23 05:11:35;;;;;;;7.90;6.80;;;17.50;99.90;;;;;;4131194;28;20182;-73
2022/07/23 05:13:35;;;;;;;11.77;10.60;;;17.60;99.90;;;;;;4131092;28;20178;-72
2022/07/23 05:15:36;;;;;;;8.40;7.53;;;17.60;99.90;;;;;;4129249;28;20236;-73
2022/07/23 05:17:36;;;;;;;9.00;7.00;;;17.50;99.90;;;;;;4131016;28;20617;-73
2022/07/23 05:19:37;;;;;;;7.10;6.40;;;17.60;99.90;;;;;;4130751;28;20213;-73
2022/07/23 05:21:37;;;;;;;7.60;6.83;;;17.60;99.90;;;;;;4130933;28;20305;-73
2022/07/23 05:23:38;;;;;;;14.73;13.30;;;17.60;99.90;;;;;;4130917;28;20182;-73
2022/07/23 05:25:39;;;;;;;7.40;6.70;;;17.80;99.90;;;;;;4129852;28;20206;-72
2022/07/23 05:27:40;;;;;;;8.73;7.83;;;17.90;99.90;;;;;;4130760;28;20178;-73
2022/07/23 05:29:40;;;;;;;12.57;11.27;;;18.00;99.90;;;;;;4129579;28;20197;-72
2022/07/23 05:31:41;;;;;;;7.97;6.03;;;18.00;99.90;;;;;;4130851;28;20273;-73
2022/07/23 05:33:42;;;;;;;7.87;7.10;;;18.20;99.90;;;;;;4130689;28;20676;-73
2022/07/23 05:35:42;;;;;;;7.43;6.63;;;18.20;99.90;;;;;;4130155;28;20205;-72
2022/07/23 05:37:43;;;;;;;7.40;6.63;;;18.20;99.90;;;;;;4130664;28;20198;-72
2022/07/23 05:39:43;;;;;;;18.93;16.57;;;18.30;99.90;;;;;;4129276;28;20217;-72
2022/07/23 05:41:44;;;;;;;14.00;11.40;;;18.40;99.90;;;;;;4130488;28;20206;-73
2022/07/23 05:43:44;;;;;;;18.20;16.27;;;18.40;99.90;;;;;;4130633;28;20182;-72
2022/07/23 05:45:45;;;;;;;11.90;10.00;;;18.60;99.90;;;;;;4129083;28;20213;-73
2022/07/23 05:47:49;;;;;;;10.17;9.30;;;18.80;97.30;;;;;;4129149;28;20560;-72
2022/07/23 05:49:50;;;;;;;6.63;6.03;;;19.00;95.70;;;;;;4130673;28;20210;-72
2022/07/23 05:51:50;;;;;;;7.67;6.20;;;19.10;98.60;;;;;;4129412;28;20182;-73
2022/07/23 05:53:51;;;;;;;8.40;7.63;;;19.30;96.90;;;;;;4130161;28;20730;-72
2022/07/23 05:55:51;;;;;;;61.40;30.83;;;19.30;97.30;;;;;;4130685;28;20283;-73
2022/07/23 05:57:52;;;;;;;10.23;9.17;;;19.20;99.90;;;;;;4130485;28;20187;-73
2022/07/23 05:59:52;;;;;;;7.93;7.10;;;19.40;99.80;;;;;;4130629;28;20186;-72
2022/07/23 06:01:53;;;;;;;7.03;6.33;;;19.60;96.80;;;;;;4129186;28;20731;-72
2022/07/23 06:03:54;;;;;;;10.03;9.13;;;19.90;95.00;;;;;;4129733;28;20556;-72
2022/07/23 06:05:54;;;;;;;9.00;7.17;;;20.00;96.20;;;;;;4130340;28;20194;-72
2022/07/23 06:07:55;;;;;;;42.37;14.30;;;20.20;95.70;;;;;;4130051;28;20175;-72
2022/07/23 06:09:55;;;;;;;8.07;7.33;;;20.30;93.90;;;;;;4130326;28;20174;-72
2022/07/23 06:11:56;;;;;;;7.83;7.10;;;20.50;93.30;;;;;;4130374;28;20189;-72
2022/07/23 06:13:56;;;;;;;337.03;60.67;;;20.60;92.40;;;;;;4128357;28;20182;-72
2022/07/23 06:15:57;;;;;;;156.37;35.33;;;20.50;93.30;;;;;;4130427;28;20206;-72
2022/07/23 06:17:57;;;;;;;10.60;9.70;;;20.40;92.50;;;;;;4130620;28;20805;-73
2022/07/23 06:19:58;;;;;;;16.73;15.30;;;20.40;92.60;;;;;;4130457;28;20185;-72
2022/07/23 06:21:58;;;;;;;70.67;38.50;;;20.50;86.60;;;;;;4130248;28;20210;-72
2022/07/23 06:23:59;;;;;;;8.10;7.23;;;20.70;86.40;;;;;;4128304;28;20193;-71
2022/07/23 06:25:59;;;;;;;111.17;30.20;;;20.80;85.50;;;;;;4128943;28;20190;-72
2022/07/23 06:28:00;;;;;;;15.37;13.73;;;20.80;86.40;;;;;;4130332;28;20201;-72
2022/07/23 06:30:01;;;;;;;12.97;11.77;;;20.90;86.10;;;;;;4130444;28;20220;-72
2022/07/23 06:32:01;;;;;;;28.97;14.23;;;21.10;82.50;;;;;;4130382;28;20201;-72
2022/07/23 06:34:02;;;;;;;46.53;20.10;;;21.20;82.10;;;;;;4128361;28;20187;-72
2022/07/23 06:36:02;;;;;;;23.97;15.63;;;21.20;80.60;;;;;;4130404;28;20206;-72
2022/07/23 06:38:03;;;;;;;16.50;15.07;;;21.20;82.30;;;;;;4130330;28;20621;-72
2022/07/23 06:40:04;;;;;;;22.60;18.33;;;21.20;80.80;;;;;;4130210;28;20210;-72
2022/07/23 06:42:05;;;;;;;19.87;18.00;;;21.10;82.10;;;;;;4130257;28;20692;-72
2022/07/23 06:44:05;;;;;;;34.17;24.37;;;21.20;81.60;;;;;;4129720;28;20218;-72
2022/07/23 06:46:06;;;;;;;37.30;21.17;;;21.30;76.30;;;;;;4130091;28;20189;-72
2022/07/23 06:48:06;;;;;;;98.97;43.70;;;21.30;75.80;;;;;;4129866;28;20194;-72
2022/07/23 06:50:07;;;;;;;178.53;45.27;;;21.20;79.80;;;;;;4130408;28;20178;-72
2022/07/23 06:52:08;;;;;;;10.83;9.83;;;21.20;79.10;;;;;;4130230;28;20205;-72
2022/07/23 06:54:08;;;;;;;67.93;60.27;;;21.20;75.70;;;;;;4129502;28;20185;-72
2022/07/23 06:56:09;;;;;;;30.97;19.23;;;21.30;76.10;;;;;;4130396;28;20638;-73
2022/07/23 06:58:09;;;;;;;13.60;9.63;;;21.30;76.50;;;;;;4130266;28;20273;-73
2022/07/23 07:00:11;;;;;;;8.57;7.77;;;21.40;76.10;;;;;;4130335;28;20186;-72
2022/07/23 07:02:11;;;;;;;85.20;16.93;;;21.50;76.60;;;;;;4130124;28;20213;-72
2022/07/23 07:04:12;;;;;;;9.17;7.77;;;21.50;75.30;;;;;;4129549;28;20191;-72
2022/07/23 07:06:12;;;;;;;22.73;13.57;;;22.00;74.20;;;;;;4130267;28;20270;-73
2022/07/23 07:08:13;;;;;;;116.07;32.90;;;22.10;71.70;;;;;;4130218;28;20665;-73
2022/07/23 07:10:16;;;;;;;8.97;8.23;;;22.20;72.70;;;;;;4130182;28;20175;-73
2022/07/23 07:12:16;;;;;;;973.53;173.60;;;22.30;70.20;;;;;;4129962;28;20182;-72
2022/07/23 07:14:17;;;;;;;56.43;20.27;;;22.60;68.50;;;;;;4129410;28;20187;-73
2022/07/23 07:16:17;;;;;;;12.57;10.10;;;22.90;67.30;;;;;;4130103;28;20193;-73
2022/07/23 07:18:18;;;;;;;27.50;12.30;;;23.00;65.90;;;;;;4132353;28;20363;-73
2022/07/23 07:20:18;;;;;;;29.93;20.27;;;23.10;65.20;;;;;;4131930;28;20241;-73
2022/07/23 07:22:19;;;;;;;12.00;9.77;;;23.00;63.30;;;;;;4132899;28;20238;-73
2022/07/23 07:24:19;;;;;;;56.27;29.77;;;23.20;64.40;;;;;;4132122;28;20201;-73
2022/07/23 07:26:20;;;;;;;7.40;6.70;;;23.20;62.40;;;;;;4132810;28;20205;-73
2022/07/23 07:28:21;;;;;;;428.77;135.43;;;23.40;59.70;;;;;;4133020;28;20194;-73
2022/07/23 07:30:21;;;;;;;90.13;37.20;;;23.40;60.30;;;;;;4132881;28;20241;-73
2022/07/23 07:32:22;;;;;;;66.83;23.23;;;23.30;60.20;;;;;;4132955;28;20202;-73
2022/07/23 07:34:23;;;;;;;677.97;163.93;;;23.10;61.80;;;;;;4132072;28;20230;-73
2022/07/23 07:36:23;;;;;;;8.53;7.60;;;23.30;59.30;;;;;;4132852;28;20186;-73
2022/07/23 07:38:24;;;;;;;22.57;13.83;;;23.20;59.20;;;;;;4132699;28;20186;-73
2022/07/23 07:40:25;;;;;;;83.47;35.00;;;23.40;60.10;;;;;;4131261;28;20182;-73
2022/07/23 07:42:26;;;;;;;614.60;87.07;;;23.30;60.50;;;;;;4132543;28;20213;-74
2022/07/23 07:44:27;;;;;;;219.47;50.03;;;23.20;60.30;;;;;;4130702;28;20205;-73
2022/07/23 07:46:27;;;;;;;198.27;43.50;;;23.30;59.50;;;;;;4132566;28;20217;-74
2022/07/23 07:48:28;;;;;;;303.03;63.47;;;23.30;59.30;;;;;;4131376;28;20187;-74
2022/07/23 07:50:28;;;;;;;115.17;38.10;;;23.20;59.20;;;;;;4132628;28;20214;-74
2022/07/23 07:52:29;;;;;;;46.63;24.13;;;23.20;59.30;;;;;;4132787;28;20202;-74
2022/07/23 07:54:29;;;;;;;181.17;43.07;;;23.00;59.60;;;;;;4131980;28;20661;-75
2022/07/23 07:56:30;;;;;;;17.63;12.40;;;22.90;60.60;;;;;;4132642;28;20248;-74
2022/07/23 07:58:30;;;;;;;29.77;11.70;;;23.00;60.40;;;;;;4132493;28;20179;-74
2022/07/23 08:00:32;;;;;;;94.70;28.83;;;23.20;59.40;;;;;;4131271;28;20565;-74
2022/07/23 08:02:47;;;;;;;137.87;33.30;;;23.30;60.60;;;;;;4132341;28;20199;-74
2022/07/23 08:04:48;;;;;;;611.30;116.73;;;23.50;58.80;;;;;;4131718;28;20213;-74
2022/07/23 08:06:49;;;;;;;27.60;23.67;;;23.50;59.40;;;;;;4132016;28;20858;-74
2022/07/23 08:08:49;;;;;;;254.47;53.17;;;23.70;57.90;;;;;;4132173;28;20186;-74
2022/07/23 08:10:50;;;;;;;144.10;35.87;;;23.70;58.10;;;;;;4130857;28;20273;-74
2022/07/23 08:12:54;;;;;;;18.17;9.83;;;24.00;58.30;;;;;;4132173;28;20171;-74
2022/07/23 08:14:55;;;;;;;12.10;10.50;;;24.20;57.30;;;;;;4130100;28;20228;-74
2022/07/23 08:16:56;;;;;;;28.03;12.07;;;24.30;57.70;;;;;;4132212;28;20182;-74
2022/07/23 08:18:56;;;;;;;201.57;38.27;;;24.60;56.20;;;;;;4130748;28;20185;-74
2022/07/23 08:20:57;;;;;;;10.70;9.73;;;24.90;54.10;;;;;;4132158;28;20181;-74
2022/07/23 08:22:59;;;;;;;150.80;23.37;;;25.00;53.40;;;;;;4132150;28;20189;-74
2022/07/23 08:25:00;;;;;;;14.93;13.43;;;25.30;51.50;;;;;;4131266;28;20272;-74
2022/07/23 08:27:00;;;;;;;97.80;24.17;;;25.10;51.10;;;;;;4131152;28;20178;-74
2022/07/23 08:29:01;;;;;;;7.50;6.80;;;25.10;50.90;;;;;;4129996;28;20233;-73
2022/07/23 08:31:02;;;;;;;13.10;12.00;;;24.90;50.80;;;;;;4132241;28;20654;-73
2022/07/23 08:33:04;;;;;;;6.30;5.70;;;24.70;51.70;;;;;;4130724;28;20185;-74
2022/07/23 08:35:04;;;;;;;751.97;133.43;;;24.70;54.10;;;;;;4131400;28;20612;-74
2022/07/23 08:37:05;;;;;;;9.40;8.70;;;25.00;51.80;;;;;;4132290;28;20182;-74
2022/07/23 08:39:05;;;;;;;85.30;25.67;;;24.90;50.80;;;;;;4130586;28;20249;-74
2022/07/23 08:41:07;;;;;;;7.23;6.63;;;24.30;52.50;;;;;;4131848;28;20590;-74
2022/07/23 08:43:11;;;;;;;36.43;26.57;;;24.00;54.40;;;;;;4131955;28;20265;-74
2022/07/23 08:45:15;;;;;;;27.13;24.27;;;24.40;53.30;;;;;;4131102;28;20237;-74
2022/07/23 08:47:16;;;;;;;171.10;41.30;;;24.50;52.40;;;;;;4131954;28;20182;-78
2022/07/23 08:49:16;;;;;;;98.03;26.80;;;24.70;52.00;;;;;;4133685;28;20178;-78
2022/07/23 08:51:17;;;;;;;8.27;7.50;;;24.60;52.10;;;;;;4133626;28;20171;-79
2022/07/23 08:53:19;;;;;;;149.13;36.07;;;24.90;52.20;;;;;;4132656;28;20237;-79
2022/07/23 08:55:22;;;;;;;142.50;33.83;;;25.00;52.30;;;;;;4133011;28;20693;-79
2022/07/23 08:57:23;;;;;;;49.70;43.67;;;25.60;50.90;;;;;;4133738;28;20257;-78
2022/07/23 08:59:23;;;;;;;8.60;7.80;;;25.50;50.90;;;;;;4133530;28;20197;-79
2022/07/23 09:01:24;;;;;;;217.30;46.57;;;25.50;52.40;;;;;;4133336;28;20206;-79
2022/07/23 09:03:38;;;;;;;8.40;7.70;;;25.70;50.40;;;;;;4131735;28;20666;-79
2022/07/23 09:05:38;;;;;;;182.83;39.67;;;25.70;49.80;;;;;;4132869;28;20668;-79
2022/07/23 09:08:09;;;;;;;26.70;19.90;;;25.40;49.00;;;;;;4132324;28;20233;-77
2022/07/23 09:10:10;;;;;;;10.37;9.53;;;25.70;49.60;;;;;;4133373;28;20265;-79
2022/07/23 09:12:11;;;;;;;10.70;9.80;;;25.90;50.00;;;;;;4132951;28;20756;-76
2022/07/23 09:14:11;;;;;;;286.87;57.40;;;25.40;50.20;;;;;;4132708;28;20186;-77
2022/07/23 09:16:12;;;;;;;36.60;17.47;;;25.60;48.90;;;;;;4133376;28;20186;-78
2022/07/23 09:18:16;;;;;;;89.57;30.07;;;25.30;50.30;;;;;;4133053;28;20210;-76
2022/07/23 09:20:17;;;;;;;452.90;76.53;;;25.20;49.50;;;;;;4131440;28;20615;-78
2022/07/23 09:22:19;;;;;;;15.87;12.83;;;25.30;50.00;;;;;;4131690;28;20225;-76
2022/07/23 09:24:20;;;;;;;118.97;48.70;;;25.70;50.00;;;;;;4132618;28;20198;-79
2022/07/23 09:26:56;;;;;;;52.97;23.90;;;25.80;48.10;;;;;;4132983;28;20792;-78
2022/07/23 09:29:01;;;;;;;16.30;14.13;;;25.60;48.70;;;;;;4082965;29;20750;-78
2022/07/23 09:31:01;;;;;;;292.13;56.63;;;26.00;47.50;;;;;;4111938;28;20186;-78
2022/07/23 09:33:14;;;;;;;9.73;8.93;;;25.80;47.40;;;;;;4133215;28;20189;-77
2022/07/23 09:35:15;;;;;;;86.97;29.17;;;25.90;48.00;;;;;;4131411;28;20205;-78
2022/07/23 09:37:18;;;;;;;76.20;18.27;;;26.40;46.40;;;;;;4131485;28;20656;-75
2022/07/23 09:39:30;;;;;;;184.77;46.30;;;26.90;46.40;;;;;;4133090;28;20192;-78
2022/07/23 09:41:39;;;;;;;11.03;10.13;;;27.30;44.40;;;;;;4131743;28;20233;-77
2022/07/23 09:43:40;;;;;;;7.27;6.57;;;27.40;45.20;;;;;;4131035;28;20182;-75
2022/07/23 09:45:40;;;;;;;79.17;22.50;;;27.70;42.60;;;;;;4130288;28;20288;-75
2022/07/23 09:47:41;;;;;;;29.73;11.87;;;27.80;42.80;;;;;;4130926;28;20174;-75
2022/07/23 09:50:04;;;;;;;92.03;28.17;;;27.90;40.80;;;;;;4130887;28;20200;-76
2022/07/23 09:52:05;;;;;;;6.10;5.50;;;28.00;39.90;;;;;;4131006;28;20626;-75
2022/07/23 09:54:19;;;;;;;802.53;155.90;;;27.60;41.10;;;;;;4130389;28;20190;-76
2022/07/23 09:56:21;;;;;;;132.70;38.50;;;27.20;42.00;;;;;;4131266;28;20162;-75
2022/07/23 09:58:23;;;;;;;354.77;85.17;;;26.60;43.90;;;;;;4129627;28;20186;-75
2022/07/23 10:00:24;;;;;;;31.30;17.47;;;26.30;45.70;;;;;;4130895;28;20182;-75
2022/07/23 10:02:25;;;;;;;43.47;20.93;;;26.40;44.50;;;;;;4129485;28;20205;-75
2022/07/23 10:04:29;;;;;;;58.90;29.80;;;26.70;44.10;;;;;;4130145;28;20248;-75
2022/07/23 10:06:30;;;;;;;8.77;7.87;;;27.50;42.60;;;;;;4129812;28;20249;-75
2022/07/23 10:08:33;;;;;;;97.40;59.23;;;27.70;42.10;;;;;;4130914;28;20182;-75
2022/07/23 10:10:33;;;;;;;19.50;12.80;;;27.80;41.90;;;;;;4131018;28;20740;-76
2022/07/23 10:14:45;;;;;;;6.93;6.30;;;28.80;40.30;;;;;;4130639;28;20202;-74
2022/07/23 10:16:47;;;;;;;66.80;24.00;;;28.30;39.10;;;;;;4131210;28;20185;-76
2022/07/23 10:18:48;;;;;;;39.87;16.33;;;28.10;40.00;;;;;;4130818;28;20189;-75
2022/07/23 10:20:50;;;;;;;7.20;6.50;;;28.10;40.90;;;;;;4130838;28;20655;-74